Sankuniki — JD2465 — position and weather

sailwx.info

Track history (hours):
 
Tides and Currents Weather Stations Pressure Air Temp Water Temp Dewpoint Dewpoint Depression Visibility Wind Speed Wind Dir Waves Ship Positions

Sankuniki

Last reported at 2017-Oct-03 00:38 UTC. Time now 2017-Oct-19 16:28 UTC.
Position N 34°58' E 139°31'.
Warning: this ship's position is 16 days out of date.

Length 71 m; draft 3.8 m.

Type: Cargo ship. MMSI: 431000269.

Date/timePositionNaut miles runAvg speedWind from/ knotsBaromVisibWave heightAir tempDewpointWater temp
2017-Oct-03 00:38N 34°58' E 139°31'212.9
2017-Oct-03 00:30N 34°60' E 139°32'713.9
2017-Oct-03 00:00N 35°04' E 139°39'714.4
2017-Oct-02 23:30N 35°10' E 139°45'713.1
2017-Oct-02 23:01N 35°16' E 139°46'612.7
2017-Oct-02 22:30N 35°22' E 139°42'510.5
2017-Oct-02 22:00N 35°25' E 139°47'510.2
2017-Oct-02 21:30N 35°22' E 139°53'0 0.0
2017-Oct-02 14:33N 35°22' E 139°53'0 0.6
2017-Oct-02 14:20N 35°22' E 139°53'2 6.6
2017-Oct-02 13:58N 35°24' E 139°50'0 0.2
2017-Oct-02 13:20N 35°24' E 139°50'0 0.1
2017-Oct-02 12:59N 35°24' E 139°50'0 0.0
2017-Oct-02 11:29N 35°24' E 139°50'0 0.0
2017-Oct-02 05:59N 35°24' E 139°50'0 0.0
2017-Oct-02 05:11N 35°24' E 139°50'0 0.0
2017-Oct-02 04:53N 35°24' E 139°50'2 2.3
2017-Oct-02 04:07N 35°24' E 139°48'111.3
2017-Oct-02 04:00N 35°24' E 139°47'1 2.0
2017-Oct-02 03:30N 35°24' E 139°46'0 0.0
2017-Oct-02 03:00N 35°24' E 139°46'0 0.0
2017-Oct-02 02:30N 35°24' E 139°46'0 0.0
2017-Oct-02 02:00N 35°24' E 139°46'0 0.0
2017-Oct-02 01:30N 35°24' E 139°46'0 0.0
2017-Oct-02 00:54N 35°24' E 139°46'0 0.1
2017-Oct-02 00:30N 35°24' E 139°45'0 0.0
2017-Oct-02 00:00N 35°24' E 139°45'0 0.0
2017-Oct-01 23:30N 35°24' E 139°45'0 0.0
2017-Oct-01 23:00N 35°24' E 139°45'0 0.1
2017-Oct-01 22:30N 35°24' E 139°45'510.4
2017-Oct-01 22:00N 35°19' E 139°44'510.6
2017-Oct-01 21:30N 35°14' E 139°47'611.9
2017-Oct-01 21:00N 35°08' E 139°46'612.2
2017-Oct-01 20:30N 35°02' E 139°44'  
2017-Sep-26 19:53N 34°51' E 139°43'12 0.3
2017-Sep-25 03:18N 34°58' E 139°31'413.2
2017-Sep-25 02:59N 35°01' E 139°35'713.5
2017-Sep-25 02:30N 35°06' E 139°41'714.1
2017-Sep-25 02:00N 35°11' E 139°46'612.4
2017-Sep-25 01:30N 35°18' E 139°44'612.6
2017-Sep-25 01:00N 35°24' E 139°42'611.2
2017-Sep-25 00:30N 35°29' E 139°42'1 1.0
2017-Sep-25 00:00N 35°29' E 139°43'0 0.0
2017-Sep-24 23:30N 35°29' E 139°43'0 0.0
2017-Sep-24 22:58N 35°29' E 139°43'0 0.0
2017-Sep-24 22:28N 35°29' E 139°43'0 0.0
2017-Sep-24 21:55N 35°29' E 139°43'0 0.0
2017-Sep-24 21:28N 35°29' E 139°43'0 0.0
2017-Sep-24 20:58N 35°29' E 139°43'0 0.0
2017-Sep-24 20:28N 35°29' E 139°43'0 0.0
2017-Sep-24 19:58N 35°29' E 139°43'0 0.0
2017-Sep-24 19:28N 35°29' E 139°43'0 0.0
2017-Sep-24 18:58N 35°29' E 139°43'0 0.0
2017-Sep-24 18:28N 35°29' E 139°43'0 0.0
2017-Sep-24 17:58N 35°29' E 139°43'0 0.0
2017-Sep-24 17:28N 35°29' E 139°43'0 0.0
2017-Sep-24 16:58N 35°29' E 139°43'0 0.0
2017-Sep-24 16:28N 35°29' E 139°43'0 0.0
2017-Sep-24 15:58N 35°29' E 139°43'0 0.0
2017-Sep-24 15:28N 35°29' E 139°43'0 0.0
2017-Sep-24 14:58N 35°29' E 139°43'0 0.0
2017-Sep-24 14:28N 35°29' E 139°43'0 0.0
2017-Sep-24 13:58N 35°29' E 139°43'0 0.0
2017-Sep-24 13:28N 35°29' E 139°43'0 0.0
2017-Sep-24 12:58N 35°29' E 139°43'0 0.0
2017-Sep-24 12:28N 35°29' E 139°43'0 0.0
2017-Sep-24 11:58N 35°29' E 139°43'0 0.0
2017-Sep-24 11:28N 35°29' E 139°43'0 0.0
2017-Sep-24 10:58N 35°29' E 139°43'0 0.0
2017-Sep-24 10:28N 35°29' E 139°43'0 0.0
2017-Sep-24 09:58N 35°29' E 139°43'0 0.0
2017-Sep-24 09:28N 35°29' E 139°43'0 0.0
2017-Sep-24 08:58N 35°29' E 139°43'0 0.0
2017-Sep-24 08:28N 35°29' E 139°43'0 0.0
2017-Sep-24 07:58N 35°29' E 139°43'0 0.0
2017-Sep-24 07:28N 35°29' E 139°43'0 0.0
2017-Sep-24 06:58N 35°29' E 139°43'0 0.0
2017-Sep-24 06:28N 35°29' E 139°43'0 0.0
2017-Sep-24 05:58N 35°29' E 139°43'0 0.0
2017-Sep-24 05:28N 35°29' E 139°43'0 0.0
2017-Sep-24 04:58N 35°29' E 139°43'0 0.0
2017-Sep-24 04:28N 35°29' E 139°43'0 0.0
2017-Sep-24 03:58N 35°29' E 139°43'0 0.0
2017-Sep-24 03:28N 35°29' E 139°43'0 0.0
2017-Sep-24 02:58N 35°29' E 139°43'0 0.0
2017-Sep-24 02:28N 35°29' E 139°43'0 0.0
2017-Sep-24 01:58N 35°29' E 139°43'0 0.0
2017-Sep-24 01:28N 35°29' E 139°43'0 0.0
2017-Sep-24 00:58N 35°29' E 139°43'0 0.0
2017-Sep-24 00:28N 35°29' E 139°43'0 0.0
2017-Sep-23 23:58N 35°29' E 139°43'0 0.0
2017-Sep-23 23:28N 35°29' E 139°43'0 0.0
2017-Sep-23 22:55N 35°29' E 139°43'0 0.0
2017-Sep-23 22:28N 35°29' E 139°43'0 0.0
2017-Sep-23 21:58N 35°29' E 139°43'0 0.0
2017-Sep-23 21:28N 35°29' E 139°43'0 0.0
2017-Sep-23 20:58N 35°29' E 139°43'0 0.0
2017-Sep-23 20:28N 35°29' E 139°43'0 0.0
2017-Sep-23 19:58N 35°29' E 139°43'  
Track history (hours):
 
Tides and Currents Weather Stations Pressure Air Temp Water Temp Dewpoint Dewpoint Depression Visibility Wind Speed Wind Dir Waves Ship Positions

Sankuniki

Last reported at 2017-Oct-03 00:38 UTC. Time now 2017-Oct-19 16:28 UTC.
Position N 34°58' E 139°31'.
Warning: this ship's position is 16 days out of date.

Length 71 m; draft 3.8 m.

Type: Cargo ship. MMSI: 431000269.

Date/timePositionNaut miles runAvg speedWind from/ knotsBaromVisibWave heightAir tempDewpointWater temp
2017-Oct-03 00:38N 34°58' E 139°31'212.9
2017-Oct-03 00:30N 34°60' E 139°32'713.9
2017-Oct-03 00:00N 35°04' E 139°39'714.4
2017-Oct-02 23:30N 35°10' E 139°45'713.1
2017-Oct-02 23:01N 35°16' E 139°46'612.7
2017-Oct-02 22:30N 35°22' E 139°42'510.5
2017-Oct-02 22:00N 35°25' E 139°47'510.2
2017-Oct-02 21:30N 35°22' E 139°53'0 0.0
2017-Oct-02 14:33N 35°22' E 139°53'0 0.6
2017-Oct-02 14:20N 35°22' E 139°53'2 6.6
2017-Oct-02 13:58N 35°24' E 139°50'0 0.2
2017-Oct-02 13:20N 35°24' E 139°50'0 0.1
2017-Oct-02 12:59N 35°24' E 139°50'0 0.0
2017-Oct-02 11:29N 35°24' E 139°50'0 0.0
2017-Oct-02 05:59N 35°24' E 139°50'0 0.0
2017-Oct-02 05:11N 35°24' E 139°50'0 0.0
2017-Oct-02 04:53N 35°24' E 139°50'2 2.3
2017-Oct-02 04:07N 35°24' E 139°48'111.3
2017-Oct-02 04:00N 35°24' E 139°47'1 2.0
2017-Oct-02 03:30N 35°24' E 139°46'0 0.0
2017-Oct-02 03:00N 35°24' E 139°46'0 0.0
2017-Oct-02 02:30N 35°24' E 139°46'0 0.0
2017-Oct-02 02:00N 35°24' E 139°46'0 0.0
2017-Oct-02 01:30N 35°24' E 139°46'0 0.0
2017-Oct-02 00:54N 35°24' E 139°46'0 0.1
2017-Oct-02 00:30N 35°24' E 139°45'0 0.0
2017-Oct-02 00:00N 35°24' E 139°45'0 0.0
2017-Oct-01 23:30N 35°24' E 139°45'0 0.0
2017-Oct-01 23:00N 35°24' E 139°45'0 0.1
2017-Oct-01 22:30N 35°24' E 139°45'510.4
2017-Oct-01 22:00N 35°19' E 139°44'510.6
2017-Oct-01 21:30N 35°14' E 139°47'611.9
2017-Oct-01 21:00N 35°08' E 139°46'612.2
2017-Oct-01 20:30N 35°02' E 139°44'  
2017-Sep-26 19:53N 34°51' E 139°43'12 0.3
2017-Sep-25 03:18N 34°58' E 139°31'413.2
2017-Sep-25 02:59N 35°01' E 139°35'713.5
2017-Sep-25 02:30N 35°06' E 139°41'714.1
2017-Sep-25 02:00N 35°11' E 139°46'612.4
2017-Sep-25 01:30N 35°18' E 139°44'612.6
2017-Sep-25 01:00N 35°24' E 139°42'611.2
2017-Sep-25 00:30N 35°29' E 139°42'1 1.0
2017-Sep-25 00:00N 35°29' E 139°43'0 0.0
2017-Sep-24 23:30N 35°29' E 139°43'0 0.0
2017-Sep-24 22:58N 35°29' E 139°43'0 0.0
2017-Sep-24 22:28N 35°29' E 139°43'0 0.0
2017-Sep-24 21:55N 35°29' E 139°43'0 0.0
2017-Sep-24 21:28N 35°29' E 139°43'0 0.0
2017-Sep-24 20:58N 35°29' E 139°43'0 0.0
2017-Sep-24 20:28N 35°29' E 139°43'0 0.0
2017-Sep-24 19:58N 35°29' E 139°43'0 0.0
2017-Sep-24 19:28N 35°29' E 139°43'0 0.0
2017-Sep-24 18:58N 35°29' E 139°43'0 0.0
2017-Sep-24 18:28N 35°29' E 139°43'0 0.0
2017-Sep-24 17:58N 35°29' E 139°43'0 0.0
2017-Sep-24 17:28N 35°29' E 139°43'0 0.0
2017-Sep-24 16:58N 35°29' E 139°43'0 0.0
2017-Sep-24 16:28N 35°29' E 139°43'0 0.0
2017-Sep-24 15:58N 35°29' E 139°43'0 0.0
2017-Sep-24 15:28N 35°29' E 139°43'0 0.0
2017-Sep-24 14:58N 35°29' E 139°43'0 0.0
2017-Sep-24 14:28N 35°29' E 139°43'0 0.0
2017-Sep-24 13:58N 35°29' E 139°43'0 0.0
2017-Sep-24 13:28N 35°29' E 139°43'0 0.0
2017-Sep-24 12:58N 35°29' E 139°43'0 0.0
2017-Sep-24 12:28N 35°29' E 139°43'0 0.0
2017-Sep-24 11:58N 35°29' E 139°43'0 0.0
2017-Sep-24 11:28N 35°29' E 139°43'0 0.0
2017-Sep-24 10:58N 35°29' E 139°43'0 0.0
2017-Sep-24 10:28N 35°29' E 139°43'0 0.0
2017-Sep-24 09:58N 35°29' E 139°43'0 0.0
2017-Sep-24 09:28N 35°29' E 139°43'0 0.0
2017-Sep-24 08:58N 35°29' E 139°43'0 0.0
2017-Sep-24 08:28N 35°29' E 139°43'0 0.0
2017-Sep-24 07:58N 35°29' E 139°43'0 0.0
2017-Sep-24 07:28N 35°29' E 139°43'0 0.0
2017-Sep-24 06:58N 35°29' E 139°43'0 0.0
2017-Sep-24 06:28N 35°29' E 139°43'0 0.0
2017-Sep-24 05:58N 35°29' E 139°43'0 0.0
2017-Sep-24 05:28N 35°29' E 139°43'0 0.0
2017-Sep-24 04:58N 35°29' E 139°43'0 0.0
2017-Sep-24 04:28N 35°29' E 139°43'0 0.0
2017-Sep-24 03:58N 35°29' E 139°43'0 0.0
2017-Sep-24 03:28N 35°29' E 139°43'0 0.0
2017-Sep-24 02:58N 35°29' E 139°43'0 0.0
2017-Sep-24 02:28N 35°29' E 139°43'0 0.0
2017-Sep-24 01:58N 35°29' E 139°43'0 0.0
2017-Sep-24 01:28N 35°29' E 139°43'0 0.0
2017-Sep-24 00:58N 35°29' E 139°43'0 0.0
2017-Sep-24 00:28N 35°29' E 139°43'0 0.0
2017-Sep-23 23:58N 35°29' E 139°43'0 0.0
2017-Sep-23 23:28N 35°29' E 139°43'0 0.0
2017-Sep-23 22:55N 35°29' E 139°43'0 0.0
2017-Sep-23 22:28N 35°29' E 139°43'0 0.0
2017-Sep-23 21:58N 35°29' E 139°43'0 0.0
2017-Sep-23 21:28N 35°29' E 139°43'0 0.0
2017-Sep-23 20:58N 35°29' E 139°43'0 0.0
2017-Sep-23 20:28N 35°29' E 139°43'0 0.0
2017-Sep-23 19:58N 35°29' E 139°43'  

Dump ship's entire track history